Eviapetrol II — SY6858 — position and weather

sailwx.info

Track history (hours):
 
Tides and Currents Weather Stations Pressure Air Temp Water Temp Dewpoint Dewpoint Depression Visibility Wind Speed Wind Dir Waves Ship Positions

Eviapetrol II

Last reported at 2015-Sep-03 19:23 UTC. Time now 2015-Sep-03 21:33 UTC.
Position N 38°02' E 023°36'.

Length 78 m; draft 4.3 m.

Type: Tanker. MMSI: 240493000.

Date/timePositionNaut miles runAvg speedWind from/ knotsBaromVisibWave heightAir tempDewpointWater temp
2015-Sep-03 19:23N 38°02' E 023°36'0 0.0
2015-Sep-03 16:19N 38°02' E 023°36'0 0.0
2015-Sep-03 15:32N 38°02' E 023°36'0 0.0
2015-Sep-03 14:33N 38°02' E 023°36'0 0.0
2015-Sep-03 13:19N 38°02' E 023°36'0 0.0
2015-Sep-03 12:29N 38°02' E 023°36'3 2.7
2015-Sep-03 11:17N 38°02' E 023°32'0 0.1
2015-Sep-03 10:33N 38°02' E 023°32'6 6.1
2015-Sep-03 09:33N 37°57' E 023°36'9 9.2
2015-Sep-03 08:33N 37°48' E 023°41'131 3.6
2015-Sep-01 20:24N 37°53' E 026°26'8 9.3
2015-Sep-01 19:33N 37°46' E 026°31'20 9.3
2015-Sep-01 17:27N 37°29' E 026°43'12 9.2
2015-Sep-01 16:06N 37°18' E 026°51'6 9.4
2015-Sep-01 15:30N 37°14' E 026°55'18 9.4
2015-Sep-01 13:32N 36°56' E 027°03'3 0.3
2015-Sep-01 04:21N 36°56' E 026°60'7 9.0
2015-Sep-01 03:33N 36°50' E 026°54'10 9.3
2015-Sep-01 02:29N 36°43' E 026°45'31 9.5
2015-Aug-31 23:12N 36°22' E 026°17'6 9.2
2015-Aug-31 22:33N 36°18' E 026°12'9 9.3
2015-Aug-31 21:33N 36°11' E 026°03'9 9.2
2015-Aug-31 20:33N 36°05' E 025°55'10 9.3
2015-Aug-31 19:30N 35°58' E 025°46'18 9.5
2015-Aug-31 17:33N 35°44' E 025°31'30 8.8
2015-Aug-31 14:06N 35°23' E 025°05'28 2.0
2015-Aug-31 00:33N 35°47' E 024°49'10 8.6
2015-Aug-30 23:25N 35°56' E 024°43'8 8.8
2015-Aug-30 22:33N 36°02' E 024°38'12 9.1
2015-Aug-30 21:14N 36°12' E 024°30'7 8.6
2015-Aug-30 20:26N 36°18' E 024°26'77 8.5
2015-Aug-30 11:26N 37°29' E 023°48'7 8.3
2015-Aug-30 10:33N 37°35' E 023°45'8 8.5
2015-Aug-30 09:33N 37°43' E 023°40'9 8.9
2015-Aug-30 08:33N 37°51' E 023°36'8 7.8
2015-Aug-30 07:34N 37°59' E 023°33'4 1.1
2015-Aug-30 04:10N 38°02' E 023°36'0 0.0
2015-Aug-30 03:25N 38°02' E 023°36'0 0.0
2015-Aug-30 02:32N 38°02' E 023°36'0 0.0
2015-Aug-30 01:33N 38°02' E 023°36'0 0.0
2015-Aug-30 00:28N 38°02' E 023°36'0 0.0
2015-Aug-29 22:05N 38°02' E 023°36'0 0.0
2015-Aug-29 19:30N 38°02' E 023°36'0 0.0
2015-Aug-29 17:33N 38°02' E 023°36'2 2.0
2015-Aug-29 16:33N 38°01' E 023°33'1 0.6
2015-Aug-29 15:33N 38°01' E 023°33'0 0.0
2015-Aug-29 14:33N 38°01' E 023°33'0 0.0
2015-Aug-29 13:27N 38°01' E 023°33'0 0.0
2015-Aug-29 12:33N 38°01' E 023°33'0 0.0
2015-Aug-29 11:33N 38°01' E 023°33'0 0.0
2015-Aug-29 10:33N 38°01' E 023°33'0 0.0
2015-Aug-29 09:32N 38°01' E 023°33'0 0.0
2015-Aug-29 08:30N 38°01' E 023°33'5 5.7
2015-Aug-29 07:33N 37°56' E 023°35'8 8.0
2015-Aug-29 06:33N 37°50' E 023°40'10 9.6
2015-Aug-29 05:33N 37°41' E 023°46'  
Track history (hours):
 
Tides and Currents Weather Stations Pressure Air Temp Water Temp Dewpoint Dewpoint Depression Visibility Wind Speed Wind Dir Waves Ship Positions

Eviapetrol II

Last reported at 2015-Sep-03 19:23 UTC. Time now 2015-Sep-03 21:33 UTC.
Position N 38°02' E 023°36'.

Length 78 m; draft 4.3 m.

Type: Tanker. MMSI: 240493000.

Date/timePositionNaut miles runAvg speedWind from/ knotsBaromVisibWave heightAir tempDewpointWater temp
2015-Sep-03 19:23N 38°02' E 023°36'0 0.0
2015-Sep-03 16:19N 38°02' E 023°36'0 0.0
2015-Sep-03 15:32N 38°02' E 023°36'0 0.0
2015-Sep-03 14:33N 38°02' E 023°36'0 0.0
2015-Sep-03 13:19N 38°02' E 023°36'0 0.0
2015-Sep-03 12:29N 38°02' E 023°36'3 2.7
2015-Sep-03 11:17N 38°02' E 023°32'0 0.1
2015-Sep-03 10:33N 38°02' E 023°32'6 6.1
2015-Sep-03 09:33N 37°57' E 023°36'9 9.2
2015-Sep-03 08:33N 37°48' E 023°41'131 3.6
2015-Sep-01 20:24N 37°53' E 026°26'8 9.3
2015-Sep-01 19:33N 37°46' E 026°31'20 9.3
2015-Sep-01 17:27N 37°29' E 026°43'12 9.2
2015-Sep-01 16:06N 37°18' E 026°51'6 9.4
2015-Sep-01 15:30N 37°14' E 026°55'18 9.4
2015-Sep-01 13:32N 36°56' E 027°03'3 0.3
2015-Sep-01 04:21N 36°56' E 026°60'7 9.0
2015-Sep-01 03:33N 36°50' E 026°54'10 9.3
2015-Sep-01 02:29N 36°43' E 026°45'31 9.5
2015-Aug-31 23:12N 36°22' E 026°17'6 9.2
2015-Aug-31 22:33N 36°18' E 026°12'9 9.3
2015-Aug-31 21:33N 36°11' E 026°03'9 9.2
2015-Aug-31 20:33N 36°05' E 025°55'10 9.3
2015-Aug-31 19:30N 35°58' E 025°46'18 9.5
2015-Aug-31 17:33N 35°44' E 025°31'30 8.8
2015-Aug-31 14:06N 35°23' E 025°05'28 2.0
2015-Aug-31 00:33N 35°47' E 024°49'10 8.6
2015-Aug-30 23:25N 35°56' E 024°43'8 8.8
2015-Aug-30 22:33N 36°02' E 024°38'12 9.1
2015-Aug-30 21:14N 36°12' E 024°30'7 8.6
2015-Aug-30 20:26N 36°18' E 024°26'77 8.5
2015-Aug-30 11:26N 37°29' E 023°48'7 8.3
2015-Aug-30 10:33N 37°35' E 023°45'8 8.5
2015-Aug-30 09:33N 37°43' E 023°40'9 8.9
2015-Aug-30 08:33N 37°51' E 023°36'8 7.8
2015-Aug-30 07:34N 37°59' E 023°33'4 1.1
2015-Aug-30 04:10N 38°02' E 023°36'0 0.0
2015-Aug-30 03:25N 38°02' E 023°36'0 0.0
2015-Aug-30 02:32N 38°02' E 023°36'0 0.0
2015-Aug-30 01:33N 38°02' E 023°36'0 0.0
2015-Aug-30 00:28N 38°02' E 023°36'0 0.0
2015-Aug-29 22:05N 38°02' E 023°36'0 0.0
2015-Aug-29 19:30N 38°02' E 023°36'0 0.0
2015-Aug-29 17:33N 38°02' E 023°36'2 2.0
2015-Aug-29 16:33N 38°01' E 023°33'1 0.6
2015-Aug-29 15:33N 38°01' E 023°33'0 0.0
2015-Aug-29 14:33N 38°01' E 023°33'0 0.0
2015-Aug-29 13:27N 38°01' E 023°33'0 0.0
2015-Aug-29 12:33N 38°01' E 023°33'0 0.0
2015-Aug-29 11:33N 38°01' E 023°33'0 0.0
2015-Aug-29 10:33N 38°01' E 023°33'0 0.0
2015-Aug-29 09:32N 38°01' E 023°33'0 0.0
2015-Aug-29 08:30N 38°01' E 023°33'5 5.7
2015-Aug-29 07:33N 37°56' E 023°35'8 8.0
2015-Aug-29 06:33N 37°50' E 023°40'10 9.6
2015-Aug-29 05:33N 37°41' E 023°46'  

Dump ship's entire track history